Time;durP1;ratioP1;P1;durP2;ratioP2;P2;SDS_P1;SDS_P2;PMS_P1;PMS_P2;Temp;Humidity;BMP_temperature;BMP_pressure;BME280_temperature;BME280_humidity;BME280_pressure;Samples;Min_cycle;Max_cycle;Signal;HPM_P1;HPM_P2
2023/12/10 00:00:55;;;;;;;27.55;5.97;;;8.90;90.20;;;;;;5094361;28;20529;-81
2023/12/10 00:03:21;;;;;;;28.67;6.68;;;8.80;90.10;;;;;;5095807;28;20036;-80
2023/12/10 00:05:47;;;;;;;26.85;5.30;;;8.80;90.00;;;;;;5112733;28;20122;-80
2023/12/10 00:08:13;;;;;;;26.15;4.43;;;8.80;89.90;;;;;;5109940;28;20040;-80
2023/12/10 00:10:39;;;;;;;26.85;4.82;;;8.80;89.70;;;;;;5124546;28;20069;-81
2023/12/10 00:13:04;;;;;;;31.40;5.70;;;8.80;89.40;;;;;;5123823;28;20042;-81
2023/12/10 00:15:30;;;;;;;24.80;4.80;;;8.80;89.40;;;;;;5110894;28;20136;-81
2023/12/10 00:17:56;;;;;;;25.20;4.97;;;8.80;89.40;;;;;;5117067;28;20099;-81
2023/12/10 00:20:22;;;;;;;34.33;7.90;;;8.80;89.30;;;;;;5113090;28;20046;-81
2023/12/10 00:22:48;;;;;;;24.23;5.05;;;8.80;89.30;;;;;;5113990;28;20096;-80
2023/12/10 00:25:14;;;;;;;27.58;5.97;;;8.70;89.30;;;;;;5109898;28;20407;-80
2023/12/10 00:27:39;;;;;;;25.35;5.40;;;8.70;89.10;;;;;;5113683;28;20065;-81
2023/12/10 00:30:05;;;;;;;25.20;5.05;;;8.80;89.10;;;;;;5113730;28;20027;-80
2023/12/10 00:32:31;;;;;;;21.60;5.05;;;8.80;89.30;;;;;;5113895;28;20405;-80
2023/12/10 00:34:57;;;;;;;21.13;4.65;;;8.80;88.90;;;;;;5111832;28;20023;-80
2023/12/10 00:37:23;;;;;;;24.70;5.05;;;8.80;88.80;;;;;;5111204;28;20126;-80
2023/12/10 00:39:48;;;;;;;21.85;4.38;;;8.80;88.80;;;;;;5113316;28;20043;-81
2023/12/10 00:42:14;;;;;;;20.95;4.18;;;8.80;88.80;;;;;;5110901;27;20042;-81
2023/12/10 00:44:39;;;;;;;16.95;3.92;;;8.80;88.80;;;;;;5112299;27;20031;-80
2023/12/10 00:47:05;;;;;;;20.60;4.57;;;8.80;88.90;;;;;;5093818;27;20031;-81
2023/12/10 00:49:31;;;;;;;21.55;5.20;;;8.80;89.10;;;;;;5100264;27;20043;-80
2023/12/10 00:51:57;;;;;;;20.48;4.10;;;8.80;89.20;;;;;;5114752;27;20035;-80
2023/12/10 00:54:22;;;;;;;14.60;4.18;;;8.80;89.40;;;;;;5116013;27;20067;-80
2023/12/10 00:56:48;;;;;;;18.50;3.40;;;8.80;89.50;;;;;;5115196;27;20071;-81
2023/12/10 00:59:14;;;;;;;16.73;3.92;;;8.80;89.80;;;;;;5116296;27;20027;-80
2023/12/10 01:01:41;;;;;;;25.63;4.95;;;8.80;90.00;;;;;;5117401;27;20039;-80
2023/12/10 01:04:06;;;;;;;31.98;5.20;;;8.70;90.00;;;;;;5102162;27;20035;-81
2023/12/10 01:06:32;;;;;;;23.75;5.43;;;8.70;90.10;;;;;;5134938;27;20466;-80
2023/12/10 01:08:58;;;;;;;25.73;5.53;;;8.70;90.20;;;;;;5115024;27;20039;-80
2023/12/10 01:11:23;;;;;;;21.17;4.50;;;8.70;90.30;;;;;;5120916;27;20038;-80
2023/12/10 01:13:49;;;;;;;20.92;3.80;;;8.70;90.40;;;;;;5099729;27;20043;-80
2023/12/10 01:16:16;;;;;;;23.88;4.47;;;8.70;90.50;;;;;;5115037;27;20050;-80
2023/12/10 01:18:43;;;;;;;22.67;4.18;;;8.70;90.60;;;;;;5125176;27;20363;-80
2023/12/10 01:21:09;;;;;;;20.85;3.85;;;8.60;90.60;;;;;;5118715;27;20434;-81
2023/12/10 01:23:39;;;;;;;21.90;4.57;;;8.70;90.70;;;;;;5112614;27;20092;-81
2023/12/10 01:26:06;;;;;;;24.27;4.65;;;8.60;90.80;;;;;;5113201;27;20031;-81
2023/12/10 01:28:33;;;;;;;23.20;5.32;;;8.60;90.80;;;;;;5109927;27;20046;-81
2023/12/10 01:30:59;;;;;;;23.63;4.72;;;8.60;90.90;;;;;;5113994;27;20039;-81
2023/12/10 01:33:24;;;;;;;22.70;5.20;;;8.60;91.00;;;;;;5116200;27;20039;-81
2023/12/10 01:35:50;;;;;;;27.40;5.00;;;8.60;91.00;;;;;;5116761;27;20055;-81
2023/12/10 01:38:16;;;;;;;21.90;3.92;;;8.60;91.10;;;;;;5117041;27;20053;-81
2023/12/10 01:40:42;;;;;;;25.00;4.68;;;8.60;91.20;;;;;;5136736;27;20082;-81
2023/12/10 01:43:08;;;;;;;21.45;4.25;;;8.60;91.20;;;;;;5099433;27;20035;-81
2023/12/10 01:45:34;;;;;;;21.17;4.35;;;8.60;91.30;;;;;;5098960;27;20327;-81
2023/12/10 01:48:04;;;;;;;21.08;3.97;;;8.60;91.40;;;;;;5137941;27;20072;-81
2023/12/10 01:50:33;;;;;;;24.92;5.00;;;8.50;91.30;;;;;;5099031;27;20495;-80
2023/12/10 01:52:59;;;;;;;24.95;4.57;;;8.50;91.40;;;;;;5115895;27;20054;-81
2023/12/10 01:55:25;;;;;;;25.65;4.90;;;8.50;91.40;;;;;;5118717;27;20039;-81
2023/12/10 01:57:52;;;;;;;23.52;5.00;;;8.50;91.50;;;;;;5112323;27;20079;-81
2023/12/10 02:00:18;;;;;;;23.73;5.47;;;8.50;91.50;;;;;;5117069;27;20039;-81
2023/12/10 02:02:44;;;;;;;23.98;5.28;;;8.50;91.60;;;;;;5098479;27;20035;-82
2023/12/10 02:05:10;;;;;;;20.55;4.55;;;8.50;91.60;;;;;;5113552;27;20046;-81
2023/12/10 02:07:37;;;;;;;26.88;5.28;;;8.50;91.60;;;;;;5099333;27;20123;-82
2023/12/10 02:10:05;;;;;;;27.23;4.70;;;8.50;91.70;;;;;;5097304;27;20040;-81
2023/12/10 02:12:32;;;;;;;24.52;4.65;;;8.50;91.70;;;;;;5114992;27;20043;-82
2023/12/10 02:14:58;;;;;;;24.58;4.38;;;8.50;91.70;;;;;;5114401;27;20167;-81
2023/12/10 02:17:25;;;;;;;26.10;5.13;;;8.50;91.80;;;;;;5135355;27;20087;-81
2023/12/10 02:19:51;;;;;;;29.35;5.45;;;8.50;91.80;;;;;;5130707;27;20043;-82
2023/12/10 02:22:19;;;;;;;25.95;4.70;;;8.50;91.80;;;;;;5096644;27;20038;-80
2023/12/10 02:24:59;;;;;;;27.00;4.60;;;8.50;91.90;;;;;;5135000;27;20043;-80
2023/12/10 02:27:25;;;;;;;27.10;5.15;;;8.50;91.90;;;;;;5115936;27;20222;-80
2023/12/10 02:29:51;;;;;;;30.80;5.38;;;8.50;91.90;;;;;;5095328;27;20047;-82
2023/12/10 02:32:17;;;;;;;18.42;4.00;;;8.50;92.00;;;;;;5113240;27;20041;-82
2023/12/10 02:34:42;;;;;;;25.40;5.05;;;8.50;92.00;;;;;;5117924;27;20088;-81
2023/12/10 02:37:08;;;;;;;26.65;4.10;;;8.50;92.00;;;;;;5106607;27;20077;-81
2023/12/10 02:39:34;;;;;;;26.30;4.88;;;8.50;92.00;;;;;;5102430;27;20047;-81
2023/12/10 02:41:59;;;;;;;22.48;5.63;;;8.50;92.00;;;;;;5099832;27;20038;-81
2023/12/10 02:44:25;;;;;;;23.30;4.90;;;8.50;92.10;;;;;;5122707;27;20408;-81
2023/12/10 02:46:51;;;;;;;26.35;5.03;;;8.50;92.10;;;;;;5116201;27;20043;-80
2023/12/10 02:49:17;;;;;;;31.48;5.55;;;8.50;92.10;;;;;;5113943;27;20091;-81
2023/12/10 02:51:42;;;;;;;24.45;4.82;;;8.50;92.10;;;;;;5115230;27;20447;-81
2023/12/10 02:54:08;;;;;;;24.75;4.78;;;8.50;92.10;;;;;;5112143;27;20121;-82
2023/12/10 02:56:34;;;;;;;27.85;5.32;;;8.50;92.20;;;;;;5114048;27;20096;-81
2023/12/10 02:59:00;;;;;;;23.23;5.70;;;8.50;92.20;;;;;;5111877;27;20187;-81
2023/12/10 03:01:26;;;;;;;28.38;5.75;;;8.50;92.20;;;;;;5112744;27;20176;-81
2023/12/10 03:03:52;;;;;;;28.00;5.40;;;8.40;92.20;;;;;;5110108;27;20490;-81
2023/12/10 03:06:18;;;;;;;23.65;5.07;;;8.50;92.20;;;;;;5110098;27;20039;-81
2023/12/10 03:08:43;;;;;;;24.02;5.50;;;8.50;92.20;;;;;;5110277;27;20043;-81
2023/12/10 03:11:09;;;;;;;17.08;3.63;;;8.40;92.20;;;;;;5110972;27;20469;-81
2023/12/10 03:13:35;;;;;;;22.90;4.53;;;8.50;92.30;;;;;;5092063;27;20499;-81
2023/12/10 03:16:00;;;;;;;28.88;4.95;;;8.50;92.30;;;;;;5105422;27;20508;-81
2023/12/10 03:18:28;;;;;;;23.80;5.40;;;8.50;92.30;;;;;;5091001;27;20054;-81
2023/12/10 03:20:53;;;;;;;21.23;4.43;;;8.40;92.30;;;;;;5091137;27;20065;-81
2023/12/10 03:23:19;;;;;;;20.30;3.97;;;8.50;92.30;;;;;;5114742;27;20074;-82
2023/12/10 03:25:45;;;;;;;24.35;4.72;;;8.50;92.30;;;;;;5095445;27;20039;-80
2023/12/10 03:28:11;;;;;;;22.90;4.38;;;8.50;92.40;;;;;;5115663;28;20050;-80
2023/12/10 03:30:36;;;;;;;23.10;3.72;;;8.50;92.40;;;;;;5098621;28;20046;-80
2023/12/10 03:33:02;;;;;;;16.38;3.33;;;8.40;92.40;;;;;;5110005;27;20129;-80
2023/12/10 03:35:28;;;;;;;20.88;3.92;;;8.50;92.40;;;;;;5115109;27;20043;-80
2023/12/10 03:37:53;;;;;;;17.60;3.58;;;8.40;92.40;;;;;;5100899;28;20055;-80
2023/12/10 03:40:19;;;;;;;21.23;4.80;;;8.40;92.50;;;;;;5100345;28;20047;-80
2023/12/10 03:42:45;;;;;;;18.02;4.68;;;8.50;92.50;;;;;;5096331;28;20039;-80
2023/12/10 03:45:10;;;;;;;14.07;2.90;;;8.50;92.60;;;;;;5110483;28;20039;-80
2023/12/10 03:47:36;;;;;;;20.52;4.18;;;8.40;92.60;;;;;;5114000;28;20564;-81
2023/12/10 03:50:03;;;;;;;19.60;3.67;;;8.40;92.60;;;;;;5109722;28;20080;-81
2023/12/10 03:52:29;;;;;;;24.20;4.35;;;8.40;92.80;;;;;;5094543;28;20486;-81
2023/12/10 03:54:55;;;;;;;21.40;4.13;;;8.50;92.70;;;;;;5114578;28;20054;-81
2023/12/10 03:57:20;;;;;;;19.52;3.85;;;8.40;92.70;;;;;;5111537;28;20062;-81
2023/12/10 03:59:46;;;;;;;25.65;4.13;;;8.40;92.70;;;;;;5114266;28;20397;-81
2023/12/10 04:02:12;;;;;;;20.55;3.50;;;8.40;92.70;;;;;;5107068;28;20039;-80
2023/12/10 04:04:38;;;;;;;15.35;3.42;;;8.40;92.80;;;;;;5115170;28;20374;-81
2023/12/10 04:07:04;;;;;;;19.98;4.80;;;8.40;92.80;;;;;;5130764;28;20410;-80
2023/12/10 04:09:29;;;;;;;24.23;4.60;;;8.40;93.00;;;;;;5112915;28;20098;-81
2023/12/10 04:12:05;;;;;;;24.70;3.63;;;8.40;92.90;;;;;;5117427;28;20085;-82
2023/12/10 04:14:31;;;;;;;17.20;3.85;;;8.50;92.90;;;;;;5111490;28;20039;-81
2023/12/10 04:16:56;;;;;;;18.40;4.22;;;8.40;92.90;;;;;;5110590;27;20050;-82
2023/12/10 04:19:22;;;;;;;22.52;3.80;;;8.50;92.90;;;;;;5112527;27;20035;-81
2023/12/10 04:21:48;;;;;;;24.98;4.70;;;8.50;93.00;;;;;;5114035;27;20039;-81
2023/12/10 04:24:15;;;;;;;21.30;5.05;;;8.40;93.00;;;;;;5100469;27;20536;-81
2023/12/10 04:26:41;;;;;;;24.55;4.70;;;8.50;93.00;;;;;;5091575;27;20043;-82
2023/12/10 04:29:06;;;;;;;20.63;4.70;;;8.50;93.00;;;;;;5116153;27;20558;-81
2023/12/10 04:31:32;;;;;;;21.10;4.15;;;8.50;93.00;;;;;;5118565;27;20550;-81
2023/12/10 04:33:58;;;;;;;24.10;4.32;;;8.50;93.00;;;;;;5113341;27;20643;-82
2023/12/10 04:36:23;;;;;;;18.52;3.97;;;8.50;93.00;;;;;;5112183;27;20043;-82
2023/12/10 04:38:49;;;;;;;23.35;4.05;;;8.50;93.00;;;;;;5116141;27;20030;-81
2023/12/10 04:41:15;;;;;;;27.02;5.10;;;8.50;93.10;;;;;;5113319;27;20031;-81
2023/12/10 04:43:40;;;;;;;18.95;3.95;;;8.50;93.10;;;;;;5094258;27;20069;-81
2023/12/10 04:46:06;;;;;;;23.95;4.80;;;8.50;93.10;;;;;;5117628;27;20031;-81
2023/12/10 04:48:32;;;;;;;25.95;4.90;;;8.50;93.10;;;;;;5119260;27;20408;-81
2023/12/10 04:50:59;;;;;;;21.27;4.78;;;8.60;93.20;;;;;;5117601;27;20031;-82
2023/12/10 04:53:25;;;;;;;26.08;4.75;;;8.60;93.20;;;;;;5105112;27;20046;-82
2023/12/10 04:55:50;;;;;;;23.58;4.30;;;8.50;93.10;;;;;;5099444;27;20039;-83
2023/12/10 04:58:16;;;;;;;20.45;3.90;;;8.60;93.20;;;;;;5119129;27;20036;-81
2023/12/10 05:00:43;;;;;;;21.95;4.75;;;8.50;93.20;;;;;;5121887;27;20482;-80
2023/12/10 05:03:09;;;;;;;23.48;4.95;;;8.60;93.20;;;;;;5102698;27;20080;-80
2023/12/10 05:05:35;;;;;;;19.95;4.03;;;8.60;93.20;;;;;;5114945;27;20377;-81
2023/12/10 05:08:01;;;;;;;27.27;4.10;;;8.60;93.30;;;;;;5117367;27;20035;-81
2023/12/10 05:10:27;;;;;;;22.00;3.80;;;8.60;93.30;;;;;;5116991;27;20490;-81
2023/12/10 05:12:52;;;;;;;19.88;4.72;;;8.60;93.30;;;;;;5117671;27;20430;-81
2023/12/10 05:15:18;;;;;;;20.08;4.20;;;8.60;93.30;;;;;;5115798;27;20030;-81
2023/12/10 05:17:43;;;;;;;20.30;4.07;;;8.60;93.30;;;;;;5117064;27;21536;-81
2023/12/10 05:20:09;;;;;;;17.00;3.90;;;8.70;93.30;;;;;;5110685;27;20038;-80
2023/12/10 05:22:35;;;;;;;17.00;3.55;;;8.70;93.30;;;;;;5119008;27;20039;-80
2023/12/10 05:25:01;;;;;;;23.10;4.60;;;8.60;93.30;;;;;;5097239;27;20063;-80
2023/12/10 05:27:32;;;;;;;17.20;3.55;;;8.70;93.40;;;;;;5100511;28;20071;-80
2023/12/10 05:29:58;;;;;;;25.08;3.95;;;8.70;93.40;;;;;;5118659;27;20087;-80
2023/12/10 05:32:24;;;;;;;19.73;4.03;;;8.70;93.40;;;;;;5101618;27;20086;-80
2023/12/10 05:34:51;;;;;;;21.00;4.38;;;8.70;93.40;;;;;;5121019;27;20031;-80
2023/12/10 05:37:16;;;;;;;23.80;4.63;;;8.70;93.40;;;;;;5121331;27;20051;-80
2023/12/10 05:39:42;;;;;;;18.35;3.97;;;8.80;93.40;;;;;;5119736;27;20074;-81
2023/12/10 05:42:08;;;;;;;25.05;5.70;;;8.70;93.40;;;;;;5114973;27;20375;-81
2023/12/10 05:44:33;;;;;;;20.25;5.57;;;8.80;93.40;;;;;;5098158;27;20478;-81
2023/12/10 05:46:59;;;;;;;21.27;4.43;;;8.80;93.40;;;;;;5120527;27;20035;-81
2023/12/10 05:49:24;;;;;;;25.25;4.82;;;8.80;93.40;;;;;;5119218;27;20519;-81
2023/12/10 05:51:50;;;;;;;26.13;4.90;;;8.80;93.40;;;;;;5118492;27;20574;-81
2023/12/10 05:54:16;;;;;;;17.80;3.53;;;8.80;93.40;;;;;;5118057;27;20039;-81
2023/12/10 05:56:42;;;;;;;20.25;3.95;;;8.80;93.50;;;;;;5116282;27;20039;-81
2023/12/10 05:59:08;;;;;;;22.13;4.90;;;8.80;93.40;;;;;;5097678;27;20035;-81
2023/12/10 06:01:34;;;;;;;23.15;4.50;;;8.90;93.50;;;;;;5100895;27;20039;-81
2023/12/10 06:03:59;;;;;;;28.60;4.55;;;8.80;93.40;;;;;;5122517;27;20055;-81
2023/12/10 06:06:25;;;;;;;30.02;5.43;;;8.90;93.60;;;;;;5101790;27;20035;-81
2023/12/10 06:08:51;;;;;;;29.42;5.55;;;8.80;93.40;;;;;;5101208;27;20038;-80
2023/12/10 06:11:17;;;;;;;27.33;4.88;;;8.90;93.50;;;;;;5101133;27;20130;-80
2023/12/10 06:13:43;;;;;;;29.60;5.40;;;8.90;93.50;;;;;;5093402;27;20474;-80
2023/12/10 06:16:08;;;;;;;32.70;6.57;;;8.90;93.40;;;;;;5119884;27;20039;-80
2023/12/10 06:18:34;;;;;;;30.15;5.60;;;8.90;93.50;;;;;;5113810;27;20041;-81
2023/12/10 06:21:00;;;;;;;22.73;4.93;;;8.90;93.40;;;;;;5119312;27;20516;-81
2023/12/10 06:23:25;;;;;;;30.95;5.30;;;8.90;93.40;;;;;;5097987;27;20043;-80
2023/12/10 06:25:51;;;;;;;31.33;6.15;;;8.90;93.40;;;;;;5133470;27;20035;-80
2023/12/10 06:28:17;;;;;;;27.83;5.53;;;8.90;93.40;;;;;;5114885;27;20488;-80
2023/12/10 06:30:42;;;;;;;25.60;5.78;;;8.90;93.40;;;;;;5118513;27;20379;-80
2023/12/10 06:33:08;;;;;;;35.47;6.53;;;9.00;93.40;;;;;;5117618;27;20131;-81
2023/12/10 06:35:34;;;;;;;34.65;6.15;;;8.90;93.40;;;;;;5114846;28;20128;-81
2023/12/10 06:37:59;;;;;;;39.00;7.30;;;8.90;93.40;;;;;;5097529;28;20044;-80
2023/12/10 06:40:25;;;;;;;31.13;5.82;;;8.90;93.30;;;;;;5113385;28;20034;-80
2023/12/10 06:42:50;;;;;;;33.17;6.32;;;8.90;93.40;;;;;;5114072;28;20066;-80
2023/12/10 06:45:16;;;;;;;26.35;5.45;;;8.90;93.30;;;;;;5097550;28;20195;-80
2023/12/10 06:47:42;;;;;;;24.27;5.43;;;8.90;93.30;;;;;;5112693;28;20051;-80
2023/12/10 06:50:08;;;;;;;27.52;5.55;;;8.90;93.30;;;;;;5115366;28;20044;-80
2023/12/10 06:52:34;;;;;;;23.05;4.90;;;8.90;93.30;;;;;;5112374;28;20024;-80
2023/12/10 06:54:59;;;;;;;33.22;6.82;;;8.90;93.30;;;;;;5114383;28;20039;-81
2023/12/10 06:57:25;;;;;;;26.38;4.82;;;8.90;93.30;;;;;;5113745;28;20486;-80
2023/12/10 06:59:51;;;;;;;31.50;5.50;;;8.90;93.20;;;;;;5098818;28;20403;-80
2023/12/10 07:02:16;;;;;;;25.52;5.65;;;8.90;93.30;;;;;;5115703;28;20032;-80
2023/12/10 07:04:42;;;;;;;26.75;4.40;;;8.80;93.20;;;;;;5110697;28;20046;-80
2023/12/10 07:07:07;;;;;;;24.27;4.55;;;8.90;93.30;;;;;;5113424;28;20127;-81
2023/12/10 07:09:33;;;;;;;20.27;4.47;;;8.90;93.20;;;;;;5109829;28;20067;-80
2023/12/10 07:11:59;;;;;;;25.73;4.82;;;8.90;93.20;;;;;;5109969;28;20043;-80
2023/12/10 07:14:24;;;;;;;31.80;5.15;;;8.80;93.20;;;;;;5111506;28;20040;-80
2023/12/10 07:16:50;;;;;;;20.60;4.63;;;8.80;93.20;;;;;;5116059;28;20055;-80
2023/12/10 07:19:15;;;;;;;23.33;3.95;;;8.80;93.20;;;;;;5115457;28;20043;-81
2023/12/10 07:21:41;;;;;;;26.50;4.55;;;8.80;93.20;;;;;;5116559;28;20032;-81
2023/12/10 07:24:07;;;;;;;21.63;4.20;;;8.80;93.20;;;;;;5111248;28;20063;-80
2023/12/10 07:26:33;;;;;;;27.02;4.43;;;8.80;93.20;;;;;;5112299;28;20035;-81
2023/12/10 07:28:59;;;;;;;21.50;4.28;;;8.80;93.20;;;;;;5111536;28;20039;-81
2023/12/10 07:31:24;;;;;;;24.05;4.22;;;8.80;93.20;;;;;;5108845;28;20116;-82
2023/12/10 07:33:50;;;;;;;20.92;4.07;;;8.80;93.20;;;;;;5111601;28;20095;-81
2023/12/10 07:36:15;;;;;;;28.42;4.88;;;8.80;93.20;;;;;;5111685;28;20051;-80
2023/12/10 07:38:41;;;;;;;27.83;4.68;;;8.80;93.20;;;;;;5110277;28;20035;-81
2023/12/10 07:41:07;;;;;;;21.58;3.85;;;8.80;93.20;;;;;;5110416;28;20038;-81
2023/12/10 07:43:33;;;;;;;23.75;3.83;;;8.80;93.10;;;;;;5109568;28;20043;-82
2023/12/10 07:45:59;;;;;;;24.92;4.63;;;8.80;93.10;;;;;;5111432;28;20046;-81
2023/12/10 07:48:25;;;;;;;26.83;4.30;;;8.80;93.10;;;;;;5112286;28;20040;-81
2023/12/10 07:50:50;;;;;;;14.57;3.25;;;8.80;93.10;;;;;;5112036;28;20078;-81
2023/12/10 07:53:17;;;;;;;17.35;3.65;;;8.80;93.10;;;;;;5114529;28;20123;-81
2023/12/10 07:55:43;;;;;;;23.02;3.60;;;8.80;93.10;;;;;;5117303;28;20032;-81
2023/12/10 07:58:09;;;;;;;15.65;3.22;;;8.80;93.20;;;;;;5101772;28;20035;-82
2023/12/10 08:00:34;;;;;;;15.90;2.70;;;8.80;93.10;;;;;;5099169;28;20024;-82
2023/12/10 08:03:00;;;;;;;22.85;3.70;;;8.80;93.10;;;;;;5118371;28;20043;-82
2023/12/10 08:05:26;;;;;;;17.45;2.85;;;8.70;93.10;;;;;;5117174;28;20146;-81
2023/12/10 08:07:51;;;;;;;18.30;4.07;;;8.80;93.10;;;;;;5120013;28;20363;-81
2023/12/10 08:10:20;;;;;;;18.75;3.97;;;8.80;93.20;;;;;;5100264;28;20513;-81
2023/12/10 08:12:46;;;;;;;23.08;4.15;;;8.80;93.20;;;;;;5119050;28;20038;-81
2023/12/10 08:15:11;;;;;;;18.67;3.40;;;8.80;93.10;;;;;;5102333;28;20040;-81
2023/12/10 08:17:37;;;;;;;16.05;3.92;;;8.80;93.10;;;;;;5115135;28;20063;-83
2023/12/10 08:20:04;;;;;;;18.67;3.58;;;8.80;93.10;;;;;;5116702;28;20043;-83
2023/12/10 08:22:30;;;;;;;28.48;4.28;;;8.80;93.10;;;;;;5101866;28;20028;-83
2023/12/10 08:24:56;;;;;;;16.17;2.63;;;8.80;93.10;;;;;;5100255;28;20174;-83
2023/12/10 08:27:21;;;;;;;20.48;4.15;;;8.80;93.10;;;;;;5120268;28;20047;-83
2023/12/10 08:29:47;;;;;;;20.30;3.45;;;8.80;93.10;;;;;;5114082;28;20035;-82
2023/12/10 08:32:13;;;;;;;19.00;3.72;;;8.80;93.10;;;;;;5117234;28;20042;-83
2023/12/10 08:34:38;;;;;;;20.63;4.65;;;8.80;93.10;;;;;;5113701;28;20031;-83
2023/12/10 08:37:05;;;;;;;22.35;4.30;;;8.80;93.00;;;;;;5113570;28;20055;-83
2023/12/10 08:39:31;;;;;;;22.45;3.95;;;8.80;93.00;;;;;;5113834;28;20505;-83
2023/12/10 08:41:56;;;;;;;22.60;5.00;;;8.80;92.90;;;;;;5096204;28;20039;-83
2023/12/10 08:44:22;;;;;;;28.00;5.32;;;8.80;92.90;;;;;;5113352;28;20494;-83
2023/12/10 08:46:48;;;;;;;27.15;4.28;;;8.80;92.90;;;;;;5092342;28;20040;-83
2023/12/10 08:49:13;;;;;;;18.60;4.10;;;8.80;92.90;;;;;;5116771;28;20035;-83
2023/12/10 08:51:39;;;;;;;23.17;4.32;;;8.80;92.80;;;;;;5114758;28;20478;-83
2023/12/10 08:54:05;;;;;;;29.05;5.93;;;8.80;92.80;;;;;;5113662;28;20080;-83
2023/12/10 08:56:30;;;;;;;24.40;4.18;;;8.80;92.80;;;;;;5115554;27;20075;-83
2023/12/10 08:58:56;;;;;;;28.30;5.38;;;8.80;92.80;;;;;;5112761;28;20035;-83
2023/12/10 09:01:22;;;;;;;30.25;6.82;;;8.80;92.80;;;;;;5111672;28;20119;-83
2023/12/10 09:03:47;;;;;;;35.55;6.32;;;8.80;92.70;;;;;;5107062;28;20471;-83
2023/12/10 09:06:13;;;;;;;28.25;6.28;;;8.70;92.60;;;;;;5113292;28;20084;-81
2023/12/10 09:08:39;;;;;;;25.80;5.10;;;8.70;92.40;;;;;;5094023;28;20095;-82
2023/12/10 09:11:05;;;;;;;33.70;6.13;;;8.60;92.20;;;;;;5108864;28;20092;-82
2023/12/10 09:13:32;;;;;;;31.25;5.90;;;8.50;92.10;;;;;;5111410;28;20052;-82
2023/12/10 09:15:58;;;;;;;21.80;4.78;;;8.50;92.00;;;;;;5107744;28;20470;-82
2023/12/10 09:18:27;;;;;;;29.75;4.95;;;8.40;91.90;;;;;;5119700;28;20036;-82
2023/12/10 09:20:54;;;;;;;28.10;5.55;;;8.30;91.90;;;;;;5112486;28;20035;-82
2023/12/10 09:23:21;;;;;;;23.80;5.65;;;8.20;91.80;;;;;;5098874;28;20027;-82
2023/12/10 09:25:47;;;;;;;20.52;4.90;;;8.20;91.80;;;;;;5112993;28;20043;-82
2023/12/10 09:28:12;;;;;;;28.48;5.10;;;8.10;91.70;;;;;;5115727;28;20040;-83
2023/12/10 09:30:38;;;;;;;26.55;5.85;;;8.00;91.70;;;;;;5114718;28;20043;-82
2023/12/10 09:33:05;;;;;;;35.63;5.68;;;8.00;91.80;;;;;;5099307;28;20043;-82
2023/12/10 09:35:31;;;;;;;28.38;5.43;;;8.00;91.90;;;;;;5101194;28;20047;-82
2023/12/10 09:37:56;;;;;;;25.70;5.25;;;8.00;92.00;;;;;;5101562;28;20139;-81
2023/12/10 09:40:22;;;;;;;30.10;5.72;;;7.90;92.10;;;;;;5107447;28;20024;-82
2023/12/10 09:42:48;;;;;;;32.53;7.00;;;7.90;92.20;;;;;;5094603;28;20448;-82
2023/12/10 09:45:14;;;;;;;35.15;6.18;;;7.90;92.20;;;;;;5110008;28;20447;-81
2023/12/10 09:47:42;;;;;;;31.08;6.20;;;7.90;92.30;;;;;;5113549;28;20413;-82
2023/12/10 09:50:08;;;;;;;33.38;6.32;;;7.80;92.30;;;;;;5116633;28;20118;-82
2023/12/10 09:52:33;;;;;;;39.95;6.85;;;7.90;92.40;;;;;;5116303;28;20079;-82
2023/12/10 09:54:59;;;;;;;30.17;5.97;;;7.90;92.40;;;;;;5114538;28;20040;-82
2023/12/10 09:57:28;;;;;;;30.95;5.97;;;7.90;92.50;;;;;;5111389;28;20462;-82
2023/12/10 09:59:53;;;;;;;40.85;8.43;;;7.90;92.50;;;;;;5112927;28;20141;-82
2023/12/10 10:02:19;;;;;;;30.30;6.82;;;7.90;92.50;;;;;;5098261;28;20040;-82
2023/12/10 10:04:45;;;;;;;24.33;5.07;;;7.90;92.70;;;;;;5097468;28;20071;-82
2023/12/10 10:07:13;;;;;;;28.48;4.95;;;7.90;92.50;;;;;;5097958;28;20032;-82
2023/12/10 10:09:38;;;;;;;30.33;5.40;;;7.90;92.50;;;;;;5111261;28;20132;-82
2023/12/10 10:12:05;;;;;;;32.45;6.05;;;7.90;92.70;;;;;;5115353;28;20028;-82
2023/12/10 10:14:31;;;;;;;31.65;7.65;;;7.90;92.60;;;;;;5096076;28;20106;-85
2023/12/10 10:16:57;;;;;;;34.78;7.18;;;7.90;92.60;;;;;;5112111;28;20093;-82
2023/12/10 10:19:22;;;;;;;28.23;6.47;;;7.90;92.50;;;;;;5114626;28;20410;-83
2023/12/10 10:21:50;;;;;;;24.98;5.15;;;7.90;92.50;;;;;;5114303;28;20038;-82
2023/12/10 10:24:15;;;;;;;25.13;6.07;;;7.90;92.50;;;;;;5096316;28;20075;-82
2023/12/10 10:26:41;;;;;;;23.73;4.45;;;7.90;92.50;;;;;;5113868;28;20047;-83
2023/12/10 10:29:08;;;;;;;28.65;5.60;;;7.90;92.40;;;;;;5114477;28;20039;-83
2023/12/10 10:31:34;;;;;;;22.63;4.88;;;7.90;92.40;;;;;;5112637;28;20039;-83
2023/12/10 10:34:05;;;;;;;22.63;5.63;;;7.90;92.40;;;;;;5110995;28;20036;-82
2023/12/10 10:36:31;;;;;;;28.98;4.47;;;7.90;92.40;;;;;;5085068;28;20044;-82
2023/12/10 10:38:57;;;;;;;31.48;5.82;;;7.90;92.40;;;;;;5094449;28;20036;-83
2023/12/10 10:41:24;;;;;;;24.40;4.50;;;7.90;92.40;;;;;;5096631;28;20031;-82
2023/12/10 10:43:50;;;;;;;18.65;4.07;;;7.90;92.40;;;;;;5102010;28;20490;-83
2023/12/10 10:46:20;;;;;;;27.55;4.53;;;7.90;92.40;;;;;;5095126;28;20042;-83
2023/12/10 10:48:51;;;;;;;21.35;4.88;;;7.90;92.40;;;;;;5094063;28;20077;-82
2023/12/10 10:51:24;;;;;;;20.83;4.25;;;7.90;92.40;;;;;;5093469;28;20082;-82
2023/12/10 10:53:53;;;;;;;28.52;5.38;;;7.90;92.40;;;;;;5093430;28;20043;-82
2023/12/10 10:56:19;;;;;;;29.40;4.85;;;7.90;92.40;;;;;;5093587;28;20032;-82
2023/12/10 10:58:45;;;;;;;25.23;4.35;;;8.00;92.50;;;;;;5094271;28;20150;-82
2023/12/10 11:01:36;;;;;;;28.95;5.45;;;7.90;92.50;;;;;;5083239;28;20063;-83
2023/12/10 11:04:01;;;;;;;24.30;4.32;;;7.90;92.50;;;;;;5080720;28;20419;-83
2023/12/10 11:06:27;;;;;;;17.27;3.70;;;7.90;92.50;;;;;;5095095;28;20036;-83
2023/12/10 11:08:59;;;;;;;20.27;4.78;;;7.90;92.50;;;;;;5078952;28;20036;-83
2023/12/10 11:11:26;;;;;;;19.75;4.25;;;7.90;92.50;;;;;;5096080;28;20040;-83
2023/12/10 11:13:53;;;;;;;25.27;5.32;;;8.00;92.60;;;;;;5096541;28;20036;-83
2023/12/10 11:16:21;;;;;;;27.90;5.70;;;8.00;92.60;;;;;;5096854;28;20036;-80
2023/12/10 11:18:51;;;;;;;33.45;5.00;;;8.00;92.80;;;;;;5097310;28;20048;-83
2023/12/10 11:21:16;;;;;;;29.20;6.00;;;8.10;92.70;;;;;;5097925;28;20491;-83
2023/12/10 11:23:42;;;;;;;17.05;4.80;;;8.10;92.70;;;;;;5079339;28;20036;-83
2023/12/10 11:26:08;;;;;;;35.65;6.25;;;8.20;92.80;;;;;;5095623;28;20457;-83
2023/12/10 11:28:34;;;;;;;21.42;4.53;;;8.20;92.80;;;;;;5077666;28;20078;-83
2023/12/10 11:31:00;;;;;;;26.40;4.65;;;8.30;92.80;;;;;;5093699;28;20036;-84
2023/12/10 11:33:27;;;;;;;19.77;4.10;;;8.30;92.80;;;;;;5094650;28;20055;-83
2023/12/10 11:35:56;;;;;;;28.55;5.13;;;8.40;92.80;;;;;;5099933;28;20421;-84
2023/12/10 11:38:24;;;;;;;23.08;4.35;;;8.50;92.90;;;;;;5096532;28;20039;-83
2023/12/10 11:40:49;;;;;;;21.65;5.05;;;8.50;92.80;;;;;;5110844;28;20103;-83
2023/12/10 11:43:15;;;;;;;28.38;5.00;;;8.60;92.80;;;;;;5094982;28;20099;-80
2023/12/10 11:45:41;;;;;;;28.48;4.53;;;8.70;92.80;;;;;;5112597;28;20031;-80
2023/12/10 11:48:07;;;;;;;22.38;4.10;;;8.70;92.70;;;;;;5112804;28;20039;-81
2023/12/10 11:50:33;;;;;;;27.05;5.03;;;8.70;92.70;;;;;;5113283;28;20035;-80
2023/12/10 11:53:00;;;;;;;21.42;5.38;;;8.80;92.70;;;;;;5115498;28;20035;-80
2023/12/10 11:55:27;;;;;;;18.40;4.78;;;8.80;92.60;;;;;;5114037;28;20088;-80
2023/12/10 11:57:55;;;;;;;25.77;5.47;;;8.90;92.60;;;;;;5116333;28;20062;-81
2023/12/10 12:00:21;;;;;;;29.67;4.85;;;8.90;92.50;;;;;;5092060;28;20051;-80
2023/12/10 12:02:46;;;;;;;26.42;5.47;;;8.90;92.40;;;;;;5120150;28;20032;-80
2023/12/10 12:05:14;;;;;;;25.67;5.75;;;9.00;92.40;;;;;;5118289;28;20040;-85
2023/12/10 12:07:41;;;;;;;25.63;4.50;;;9.00;92.40;;;;;;5110511;28;20052;-83
2023/12/10 12:10:08;;;;;;;27.27;4.70;;;9.10;92.30;;;;;;5107659;28;20108;-80
2023/12/10 12:12:39;;;;;;;23.40;5.32;;;9.10;92.20;;;;;;5113735;28;20057;-80
2023/12/10 12:15:06;;;;;;;21.33;4.88;;;9.10;92.10;;;;;;5108822;28;20028;-81
2023/12/10 12:17:32;;;;;;;22.08;4.47;;;9.20;92.00;;;;;;5111305;28;20088;-80
2023/12/10 12:20:18;;;;;;;16.48;3.40;;;9.20;91.90;;;;;;5111362;28;20038;-80
2023/12/10 12:22:45;;;;;;;19.45;3.63;;;9.20;91.60;;;;;;5093598;28;20084;-82
2023/12/10 12:25:11;;;;;;;16.92;3.88;;;9.20;91.80;;;;;;5112848;28;20032;-82
2023/12/10 12:27:36;;;;;;;23.70;4.38;;;9.20;91.30;;;;;;5106660;28;20039;-81
2023/12/10 12:30:03;;;;;;;17.27;3.85;;;9.30;91.10;;;;;;5108868;28;20036;-81
2023/12/10 12:32:28;;;;;;;19.17;3.92;;;9.20;90.90;;;;;;5111243;28;20394;-81
2023/12/10 12:34:54;;;;;;;17.63;3.72;;;9.20;90.80;;;;;;5108810;28;20044;-81
2023/12/10 12:37:20;;;;;;;16.38;3.50;;;9.20;90.70;;;;;;5094055;28;20174;-81
2023/12/10 12:39:45;;;;;;;14.40;2.97;;;9.20;90.60;;;;;;5111432;28;20478;-82
2023/12/10 12:42:11;;;;;;;13.50;3.28;;;9.20;90.50;;;;;;5117363;28;20036;-82